sensor_id;sensor_type;location;lat;lon;timestamp;P1;durP1;ratioP1;P2;durP2;ratioP2
4986;SDS011;12674;51.500;7.552;2023-02-27T00:01:50;3.60;;;2.63;;
4986;SDS011;12674;51.500;7.552;2023-02-27T00:03:54;3.10;;;2.40;;
4986;SDS011;12674;51.500;7.552;2023-02-27T00:05:59;8.13;;;3.13;;
4986;SDS011;12674;51.500;7.552;2023-02-27T00:08:02;3.43;;;2.60;;
4986;SDS011;12674;51.500;7.552;2023-02-27T00:10:05;5.23;;;2.20;;
4986;SDS011;12674;51.500;7.552;2023-02-27T00:12:09;2.90;;;2.00;;
4986;SDS011;12674;51.500;7.552;2023-02-27T00:14:13;4.57;;;2.57;;
4986;SDS011;12674;51.500;7.552;2023-02-27T00:16:16;5.60;;;2.60;;
4986;SDS011;12674;51.500;7.552;2023-02-27T00:18:19;5.90;;;2.70;;
4986;SDS011;12674;51.500;7.552;2023-02-27T00:20:22;5.13;;;2.53;;
4986;SDS011;12674;51.500;7.552;2023-02-27T00:22:27;2.53;;;2.33;;
4986;SDS011;12674;51.500;7.552;2023-02-27T00:24:30;3.10;;;2.10;;
4986;SDS011;12674;51.500;7.552;2023-02-27T00:26:33;3.30;;;2.73;;
4986;SDS011;12674;51.500;7.552;2023-02-27T00:28:37;4.23;;;2.13;;
4986;SDS011;12674;51.500;7.552;2023-02-27T00:30:40;3.43;;;1.87;;
4986;SDS011;12674;51.500;7.552;2023-02-27T00:32:46;4.27;;;2.60;;
4986;SDS011;12674;51.500;7.552;2023-02-27T00:34:49;2.80;;;2.23;;
4986;SDS011;12674;51.500;7.552;2023-02-27T00:36:52;8.17;;;2.53;;
4986;SDS011;12674;51.500;7.552;2023-02-27T00:38:59;5.20;;;2.43;;
4986;SDS011;12674;51.500;7.552;2023-02-27T00:41:03;4.27;;;2.30;;
4986;SDS011;12674;51.500;7.552;2023-02-27T00:43:06;2.60;;;2.20;;
4986;SDS011;12674;51.500;7.552;2023-02-27T00:45:09;2.80;;;2.20;;
4986;SDS011;12674;51.500;7.552;2023-02-27T00:47:12;4.00;;;2.37;;
4986;SDS011;12674;51.500;7.552;2023-02-27T00:49:15;2.77;;;2.17;;
4986;SDS011;12674;51.500;7.552;2023-02-27T00:51:20;4.90;;;2.47;;
4986;SDS011;12674;51.500;7.552;2023-02-27T00:53:23;7.87;;;2.70;;
4986;SDS011;12674;51.500;7.552;2023-02-27T00:55:28;2.27;;;2.07;;
4986;SDS011;12674;51.500;7.552;2023-02-27T00:57:32;2.83;;;2.53;;
4986;SDS011;12674;51.500;7.552;2023-02-27T00:59:35;6.63;;;2.80;;
4986;SDS011;12674;51.500;7.552;2023-02-27T01:01:38;2.00;;;1.80;;
4986;SDS011;12674;51.500;7.552;2023-02-27T01:03:41;4.77;;;2.83;;
4986;SDS011;12674;51.500;7.552;2023-02-27T01:05:45;3.60;;;2.67;;
4986;SDS011;12674;51.500;7.552;2023-02-27T01:07:48;3.00;;;1.97;;
4986;SDS011;12674;51.500;7.552;2023-02-27T01:09:51;4.83;;;2.30;;
4986;SDS011;12674;51.500;7.552;2023-02-27T01:11:56;3.00;;;2.23;;
4986;SDS011;12674;51.500;7.552;2023-02-27T01:13:59;4.10;;;2.50;;
4986;SDS011;12674;51.500;7.552;2023-02-27T01:16:03;5.17;;;2.50;;
4986;SDS011;12674;51.500;7.552;2023-02-27T01:18:06;4.10;;;2.10;;
4986;SDS011;12674;51.500;7.552;2023-02-27T01:20:11;4.63;;;2.20;;
4986;SDS011;12674;51.500;7.552;2023-02-27T01:22:15;9.57;;;2.37;;
4986;SDS011;12674;51.500;7.552;2023-02-27T01:24:18;3.37;;;2.50;;
4986;SDS011;12674;51.500;7.552;2023-02-27T01:26:22;3.70;;;2.17;;
4986;SDS011;12674;51.500;7.552;2023-02-27T01:28:28;3.57;;;1.90;;
4986;SDS011;12674;51.500;7.552;2023-02-27T01:30:32;2.93;;;2.50;;
4986;SDS011;12674;51.500;7.552;2023-02-27T01:32:35;2.60;;;2.30;;
4986;SDS011;12674;51.500;7.552;2023-02-27T01:34:38;3.53;;;2.30;;
4986;SDS011;12674;51.500;7.552;2023-02-27T01:36:41;4.93;;;2.57;;
4986;SDS011;12674;51.500;7.552;2023-02-27T01:38:45;2.60;;;2.17;;
4986;SDS011;12674;51.500;7.552;2023-02-27T01:40:48;4.93;;;2.57;;
4986;SDS011;12674;51.500;7.552;2023-02-27T01:42:51;8.87;;;3.30;;
4986;SDS011;12674;51.500;7.552;2023-02-27T01:47:23;4.10;;;2.60;;
4986;SDS011;12674;51.500;7.552;2023-02-27T01:49:28;3.47;;;2.23;;
4986;SDS011;12674;51.500;7.552;2023-02-27T01:51:33;3.93;;;2.57;;
4986;SDS011;12674;51.500;7.552;2023-02-27T01:53:39;3.00;;;2.10;;
4986;SDS011;12674;51.500;7.552;2023-02-27T01:55:45;10.00;;;3.67;;
4986;SDS011;12674;51.500;7.552;2023-02-27T01:57:49;6.80;;;3.27;;
4986;SDS011;12674;51.500;7.552;2023-02-27T01:59:53;4.43;;;2.83;;
4986;SDS011;12674;51.500;7.552;2023-02-27T02:01:58;6.43;;;3.23;;
4986;SDS011;12674;51.500;7.552;2023-02-27T02:04:05;2.93;;;2.17;;
4986;SDS011;12674;51.500;7.552;2023-02-27T02:06:09;2.33;;;2.13;;
4986;SDS011;12674;51.500;7.552;2023-02-27T02:08:13;3.23;;;2.00;;
4986;SDS011;12674;51.500;7.552;2023-02-27T02:10:17;4.07;;;2.77;;
4986;SDS011;12674;51.500;7.552;2023-02-27T02:12:21;4.17;;;2.53;;
4986;SDS011;12674;51.500;7.552;2023-02-27T02:14:26;4.97;;;2.50;;
4986;SDS011;12674;51.500;7.552;2023-02-27T02:16:39;5.30;;;2.80;;
4986;SDS011;12674;51.500;7.552;2023-02-27T02:18:56;7.60;;;2.83;;
4986;SDS011;12674;51.500;7.552;2023-02-27T02:24:14;3.93;;;3.30;;
4986;SDS011;12674;51.500;7.552;2023-02-27T02:26:44;6.00;;;2.90;;
4986;SDS011;12674;51.500;7.552;2023-02-27T02:29:18;5.53;;;2.20;;
4986;SDS011;12674;51.500;7.552;2023-02-27T02:31:54;4.83;;;3.07;;
4986;SDS011;12674;51.500;7.552;2023-02-27T02:34:33;4.00;;;2.57;;
4986;SDS011;12674;51.500;7.552;2023-02-27T02:39:37;7.77;;;3.20;;
4986;SDS011;12674;51.500;7.552;2023-02-27T02:42:02;8.33;;;3.33;;
4986;SDS011;12674;51.500;7.552;2023-02-27T02:44:06;2.97;;;2.67;;
4986;SDS011;12674;51.500;7.552;2023-02-27T02:46:22;8.70;;;2.70;;
4986;SDS011;12674;51.500;7.552;2023-02-27T02:48:29;9.17;;;3.20;;
4986;SDS011;12674;51.500;7.552;2023-02-27T02:50:35;6.43;;;3.00;;
4986;SDS011;12674;51.500;7.552;2023-02-27T02:52:44;3.93;;;3.10;;
4986;SDS011;12674;51.500;7.552;2023-02-27T02:54:55;5.13;;;3.23;;
4986;SDS011;12674;51.500;7.552;2023-02-27T02:57:01;5.10;;;3.90;;
4986;SDS011;12674;51.500;7.552;2023-02-27T02:59:10;10.13;;;4.00;;
4986;SDS011;12674;51.500;7.552;2023-02-27T03:01:18;5.53;;;3.20;;
4986;SDS011;12674;51.500;7.552;2023-02-27T03:03:25;3.30;;;3.00;;
4986;SDS011;12674;51.500;7.552;2023-02-27T03:05:31;4.70;;;3.03;;
4986;SDS011;12674;51.500;7.552;2023-02-27T03:07:37;4.20;;;2.80;;
4986;SDS011;12674;51.500;7.552;2023-02-27T03:09:42;2.97;;;2.77;;
4986;SDS011;12674;51.500;7.552;2023-02-27T03:11:49;3.70;;;2.60;;
4986;SDS011;12674;51.500;7.552;2023-02-27T03:13:53;4.23;;;3.10;;
4986;SDS011;12674;51.500;7.552;2023-02-27T03:16:01;5.83;;;3.43;;
4986;SDS011;12674;51.500;7.552;2023-02-27T03:18:09;5.60;;;3.10;;
4986;SDS011;12674;51.500;7.552;2023-02-27T03:20:21;4.53;;;2.10;;
4986;SDS011;12674;51.500;7.552;2023-02-27T03:22:27;5.73;;;3.00;;
4986;SDS011;12674;51.500;7.552;2023-02-27T03:24:34;2.97;;;2.67;;
4986;SDS011;12674;51.500;7.552;2023-02-27T03:26:42;5.63;;;2.90;;
4986;SDS011;12674;51.500;7.552;2023-02-27T03:28:51;4.97;;;2.20;;
4986;SDS011;12674;51.500;7.552;2023-02-27T03:30:58;6.53;;;3.10;;
4986;SDS011;12674;51.500;7.552;2023-02-27T03:33:04;3.80;;;3.10;;
4986;SDS011;12674;51.500;7.552;2023-02-27T03:35:10;4.20;;;2.20;;
4986;SDS011;12674;51.500;7.552;2023-02-27T03:37:19;3.73;;;2.70;;
4986;SDS011;12674;51.500;7.552;2023-02-27T03:39:26;3.17;;;2.60;;
4986;SDS011;12674;51.500;7.552;2023-02-27T03:41:38;2.80;;;2.60;;
4986;SDS011;12674;51.500;7.552;2023-02-27T03:44:02;3.70;;;2.50;;
4986;SDS011;12674;51.500;7.552;2023-02-27T03:46:09;4.17;;;3.30;;
4986;SDS011;12674;51.500;7.552;2023-02-27T03:48:13;2.57;;;2.37;;
4986;SDS011;12674;51.500;7.552;2023-02-27T03:50:17;3.90;;;2.60;;
4986;SDS011;12674;51.500;7.552;2023-02-27T03:52:20;2.70;;;2.47;;
4986;SDS011;12674;51.500;7.552;2023-02-27T03:54:26;3.50;;;2.47;;
4986;SDS011;12674;51.500;7.552;2023-02-27T03:56:32;11.47;;;3.30;;
4986;SDS011;12674;51.500;7.552;2023-02-27T03:58:39;5.03;;;3.37;;
4986;SDS011;12674;51.500;7.552;2023-02-27T04:00:43;4.03;;;2.23;;
4986;SDS011;12674;51.500;7.552;2023-02-27T04:02:47;3.00;;;2.43;;
4986;SDS011;12674;51.500;7.552;2023-02-27T04:04:55;6.33;;;3.17;;
4986;SDS011;12674;51.500;7.552;2023-02-27T04:07:16;6.30;;;3.00;;
4986;SDS011;12674;51.500;7.552;2023-02-27T04:09:26;3.10;;;2.80;;
4986;SDS011;12674;51.500;7.552;2023-02-27T04:11:34;5.80;;;2.70;;
4986;SDS011;12674;51.500;7.552;2023-02-27T04:13:43;2.53;;;2.33;;
4986;SDS011;12674;51.500;7.552;2023-02-27T04:16:04;5.53;;;2.70;;
4986;SDS011;12674;51.500;7.552;2023-02-27T04:18:18;6.97;;;3.07;;
4986;SDS011;12674;51.500;7.552;2023-02-27T04:20:34;5.17;;;3.17;;
4986;SDS011;12674;51.500;7.552;2023-02-27T04:22:40;7.70;;;2.83;;
4986;SDS011;12674;51.500;7.552;2023-02-27T04:24:50;9.13;;;2.80;;
4986;SDS011;12674;51.500;7.552;2023-02-27T04:26:57;6.60;;;3.20;;
4986;SDS011;12674;51.500;7.552;2023-02-27T04:29:09;6.83;;;3.03;;
4986;SDS011;12674;51.500;7.552;2023-02-27T04:31:17;5.40;;;2.73;;
4986;SDS011;12674;51.500;7.552;2023-02-27T04:33:28;6.70;;;3.13;;
4986;SDS011;12674;51.500;7.552;2023-02-27T04:35:37;6.40;;;3.60;;
4986;SDS011;12674;51.500;7.552;2023-02-27T04:37:45;7.90;;;3.50;;
4986;SDS011;12674;51.500;7.552;2023-02-27T04:39:51;4.90;;;2.50;;
4986;SDS011;12674;51.500;7.552;2023-02-27T04:41:56;5.30;;;3.60;;
4986;SDS011;12674;51.500;7.552;2023-02-27T04:44:01;6.43;;;3.10;;
4986;SDS011;12674;51.500;7.552;2023-02-27T04:46:05;6.73;;;2.60;;
4986;SDS011;12674;51.500;7.552;2023-02-27T04:48:13;7.40;;;2.80;;
4986;SDS011;12674;51.500;7.552;2023-02-27T04:50:21;4.37;;;2.60;;
4986;SDS011;12674;51.500;7.552;2023-02-27T04:52:27;6.63;;;3.60;;
4986;SDS011;12674;51.500;7.552;2023-02-27T04:54:33;10.63;;;3.20;;
4986;SDS011;12674;51.500;7.552;2023-02-27T04:56:39;8.13;;;3.30;;
4986;SDS011;12674;51.500;7.552;2023-02-27T04:58:44;3.30;;;2.93;;
4986;SDS011;12674;51.500;7.552;2023-02-27T05:00:52;8.63;;;3.50;;
4986;SDS011;12674;51.500;7.552;2023-02-27T05:03:00;5.83;;;2.90;;
4986;SDS011;12674;51.500;7.552;2023-02-27T05:05:06;8.43;;;2.80;;
4986;SDS011;12674;51.500;7.552;2023-02-27T05:07:12;3.97;;;2.43;;
4986;SDS011;12674;51.500;7.552;2023-02-27T05:09:18;4.97;;;3.23;;
4986;SDS011;12674;51.500;7.552;2023-02-27T05:11:25;5.17;;;3.30;;
4986;SDS011;12674;51.500;7.552;2023-02-27T05:13:31;4.30;;;2.33;;
4986;SDS011;12674;51.500;7.552;2023-02-27T05:15:37;4.10;;;2.50;;
4986;SDS011;12674;51.500;7.552;2023-02-27T05:17:44;7.17;;;3.10;;
4986;SDS011;12674;51.500;7.552;2023-02-27T05:19:50;5.10;;;3.30;;
4986;SDS011;12674;51.500;7.552;2023-02-27T05:21:56;3.13;;;2.73;;
4986;SDS011;12674;51.500;7.552;2023-02-27T05:24:07;10.93;;;3.00;;
4986;SDS011;12674;51.500;7.552;2023-02-27T05:26:15;6.20;;;3.53;;
4986;SDS011;12674;51.500;7.552;2023-02-27T05:28:20;5.03;;;2.50;;
4986;SDS011;12674;51.500;7.552;2023-02-27T05:30:27;5.03;;;3.20;;
4986;SDS011;12674;51.500;7.552;2023-02-27T05:32:35;4.70;;;3.37;;
4986;SDS011;12674;51.500;7.552;2023-02-27T05:34:41;4.20;;;2.87;;
4986;SDS011;12674;51.500;7.552;2023-02-27T05:36:46;14.10;;;3.93;;
4986;SDS011;12674;51.500;7.552;2023-02-27T05:38:56;7.87;;;3.43;;
4986;SDS011;12674;51.500;7.552;2023-02-27T05:41:01;3.77;;;3.13;;
4986;SDS011;12674;51.500;7.552;2023-02-27T05:43:10;4.50;;;3.20;;
4986;SDS011;12674;51.500;7.552;2023-02-27T05:45:15;4.80;;;3.03;;
4986;SDS011;12674;51.500;7.552;2023-02-27T05:47:21;4.00;;;2.80;;
4986;SDS011;12674;51.500;7.552;2023-02-27T05:49:26;5.20;;;3.20;;
4986;SDS011;12674;51.500;7.552;2023-02-27T05:51:32;6.67;;;3.30;;
4986;SDS011;12674;51.500;7.552;2023-02-27T05:53:38;3.13;;;2.80;;
4986;SDS011;12674;51.500;7.552;2023-02-27T05:55:45;5.53;;;2.80;;
4986;SDS011;12674;51.500;7.552;2023-02-27T05:57:51;10.00;;;3.60;;
4986;SDS011;12674;51.500;7.552;2023-02-27T05:59:57;5.90;;;3.30;;
4986;SDS011;12674;51.500;7.552;2023-02-27T06:02:11;7.97;;;3.20;;
4986;SDS011;12674;51.500;7.552;2023-02-27T06:04:14;6.93;;;3.27;;
4986;SDS011;12674;51.500;7.552;2023-02-27T06:06:18;9.30;;;3.57;;
4986;SDS011;12674;51.500;7.552;2023-02-27T06:08:21;15.90;;;4.00;;
4986;SDS011;12674;51.500;7.552;2023-02-27T06:10:24;5.13;;;2.93;;
4986;SDS011;12674;51.500;7.552;2023-02-27T06:12:29;12.40;;;2.97;;
4986;SDS011;12674;51.500;7.552;2023-02-27T06:14:32;6.90;;;4.27;;
4986;SDS011;12674;51.500;7.552;2023-02-27T06:16:34;11.33;;;3.40;;
4986;SDS011;12674;51.500;7.552;2023-02-27T06:18:38;7.40;;;3.37;;
4986;SDS011;12674;51.500;7.552;2023-02-27T06:20:42;7.50;;;3.10;;
4986;SDS011;12674;51.500;7.552;2023-02-27T06:22:45;5.00;;;2.97;;
4986;SDS011;12674;51.500;7.552;2023-02-27T06:24:48;4.67;;;3.17;;
4986;SDS011;12674;51.500;7.552;2023-02-27T06:26:51;8.83;;;3.77;;
4986;SDS011;12674;51.500;7.552;2023-02-27T06:28:55;4.80;;;3.40;;
4986;SDS011;12674;51.500;7.552;2023-02-27T06:30:58;3.60;;;3.30;;
4986;SDS011;12674;51.500;7.552;2023-02-27T06:33:02;12.10;;;4.20;;
4986;SDS011;12674;51.500;7.552;2023-02-27T06:35:06;9.47;;;3.57;;
4986;SDS011;12674;51.500;7.552;2023-02-27T06:37:10;6.47;;;3.23;;
4986;SDS011;12674;51.500;7.552;2023-02-27T06:39:13;7.63;;;2.97;;
4986;SDS011;12674;51.500;7.552;2023-02-27T06:41:16;6.63;;;3.47;;
4986;SDS011;12674;51.500;7.552;2023-02-27T06:43:19;6.60;;;3.60;;
4986;SDS011;12674;51.500;7.552;2023-02-27T06:45:24;3.77;;;3.30;;
4986;SDS011;12674;51.500;7.552;2023-02-27T06:47:27;8.30;;;3.73;;
4986;SDS011;12674;51.500;7.552;2023-02-27T06:49:30;11.40;;;3.50;;
4986;SDS011;12674;51.500;7.552;2023-02-27T06:51:33;5.37;;;3.67;;
4986;SDS011;12674;51.500;7.552;2023-02-27T06:53:37;12.00;;;4.00;;
4986;SDS011;12674;51.500;7.552;2023-02-27T06:55:40;10.37;;;3.43;;
4986;SDS011;12674;51.500;7.552;2023-02-27T06:57:43;9.67;;;3.77;;
4986;SDS011;12674;51.500;7.552;2023-02-27T06:59:46;9.90;;;4.27;;
4986;SDS011;12674;51.500;7.552;2023-02-27T07:01:51;6.13;;;3.43;;
4986;SDS011;12674;51.500;7.552;2023-02-27T07:03:54;5.60;;;3.40;;
4986;SDS011;12674;51.500;7.552;2023-02-27T07:05:57;6.00;;;3.90;;
4986;SDS011;12674;51.500;7.552;2023-02-27T07:08:00;5.00;;;3.83;;
4986;SDS011;12674;51.500;7.552;2023-02-27T07:10:04;8.37;;;3.87;;
4986;SDS011;12674;51.500;7.552;2023-02-27T07:12:08;7.70;;;3.77;;
4986;SDS011;12674;51.500;7.552;2023-02-27T07:14:11;15.60;;;5.57;;
4986;SDS011;12674;51.500;7.552;2023-02-27T07:16:15;12.30;;;5.40;;
4986;SDS011;12674;51.500;7.552;2023-02-27T07:18:20;13.10;;;6.23;;
4986;SDS011;12674;51.500;7.552;2023-02-27T07:20:23;10.33;;;6.40;;
4986;SDS011;12674;51.500;7.552;2023-02-27T07:22:26;22.80;;;6.40;;
4986;SDS011;12674;51.500;7.552;2023-02-27T07:24:29;20.13;;;6.07;;
4986;SDS011;12674;51.500;7.552;2023-02-27T07:26:32;19.03;;;6.63;;
4986;SDS011;12674;51.500;7.552;2023-02-27T07:28:35;21.33;;;8.00;;
4986;SDS011;12674;51.500;7.552;2023-02-27T07:30:38;21.53;;;7.00;;
4986;SDS011;12674;51.500;7.552;2023-02-27T07:32:42;16.87;;;6.80;;
4986;SDS011;12674;51.500;7.552;2023-02-27T07:34:46;24.90;;;8.50;;
4986;SDS011;12674;51.500;7.552;2023-02-27T07:36:49;21.33;;;7.77;;
4986;SDS011;12674;51.500;7.552;2023-02-27T07:38:52;22.97;;;8.80;;
4986;SDS011;12674;51.500;7.552;2023-02-27T07:40:55;28.70;;;10.20;;
4986;SDS011;12674;51.500;7.552;2023-02-27T07:42:59;15.87;;;8.27;;
4986;SDS011;12674;51.500;7.552;2023-02-27T07:45:02;13.70;;;6.33;;
4986;SDS011;12674;51.500;7.552;2023-02-27T07:47:06;15.10;;;6.00;;
4986;SDS011;12674;51.500;7.552;2023-02-27T07:49:09;16.90;;;7.30;;
4986;SDS011;12674;51.500;7.552;2023-02-27T07:51:13;18.97;;;8.03;;
4986;SDS011;12674;51.500;7.552;2023-02-27T07:53:16;12.83;;;5.93;;
4986;SDS011;12674;51.500;7.552;2023-02-27T07:55:19;8.60;;;4.10;;
4986;SDS011;12674;51.500;7.552;2023-02-27T07:57:22;5.53;;;3.30;;
4986;SDS011;12674;51.500;7.552;2023-02-27T07:59:25;14.50;;;4.53;;
4986;SDS011;12674;51.500;7.552;2023-02-27T08:01:28;7.50;;;5.20;;
4986;SDS011;12674;51.500;7.552;2023-02-27T08:03:32;13.20;;;4.30;;
4986;SDS011;12674;51.500;7.552;2023-02-27T08:05:35;15.53;;;3.97;;
4986;SDS011;12674;51.500;7.552;2023-02-27T08:07:39;9.30;;;3.33;;
4986;SDS011;12674;51.500;7.552;2023-02-27T08:09:43;6.63;;;3.40;;
4986;SDS011;12674;51.500;7.552;2023-02-27T08:11:46;13.20;;;3.50;;
4986;SDS011;12674;51.500;7.552;2023-02-27T08:13:49;12.27;;;3.67;;
4986;SDS011;12674;51.500;7.552;2023-02-27T08:16:02;8.60;;;3.30;;
4986;SDS011;12674;51.500;7.552;2023-02-27T08:18:06;4.17;;;3.33;;
4986;SDS011;12674;51.500;7.552;2023-02-27T08:20:09;5.47;;;3.60;;
4986;SDS011;12674;51.500;7.552;2023-02-27T08:22:14;6.10;;;2.83;;
4986;SDS011;12674;51.500;7.552;2023-02-27T08:24:18;7.53;;;2.90;;
4986;SDS011;12674;51.500;7.552;2023-02-27T08:26:21;6.60;;;3.13;;
4986;SDS011;12674;51.500;7.552;2023-02-27T08:28:24;9.63;;;2.90;;
4986;SDS011;12674;51.500;7.552;2023-02-27T08:30:28;6.03;;;3.33;;
4986;SDS011;12674;51.500;7.552;2023-02-27T08:32:31;8.93;;;2.70;;
4986;SDS011;12674;51.500;7.552;2023-02-27T08:34:34;7.03;;;3.70;;
4986;SDS011;12674;51.500;7.552;2023-02-27T08:36:37;12.90;;;3.47;;
4986;SDS011;12674;51.500;7.552;2023-02-27T08:38:41;10.93;;;3.83;;
4986;SDS011;12674;51.500;7.552;2023-02-27T08:40:46;5.87;;;2.70;;
4986;SDS011;12674;51.500;7.552;2023-02-27T08:42:49;5.37;;;2.70;;
4986;SDS011;12674;51.500;7.552;2023-02-27T08:44:53;5.80;;;2.80;;
4986;SDS011;12674;51.500;7.552;2023-02-27T08:46:56;6.40;;;3.03;;
4986;SDS011;12674;51.500;7.552;2023-02-27T08:49:00;4.00;;;2.30;;
4986;SDS011;12674;51.500;7.552;2023-02-27T08:51:02;13.30;;;3.00;;
4986;SDS011;12674;51.500;7.552;2023-02-27T08:53:05;6.40;;;3.00;;
4986;SDS011;12674;51.500;7.552;2023-02-27T08:55:09;6.27;;;3.30;;
4986;SDS011;12674;51.500;7.552;2023-02-27T08:57:13;9.10;;;3.47;;
4986;SDS011;12674;51.500;7.552;2023-02-27T08:59:16;10.10;;;3.40;;
4986;SDS011;12674;51.500;7.552;2023-02-27T09:01:19;7.07;;;2.87;;
4986;SDS011;12674;51.500;7.552;2023-02-27T09:03:22;8.23;;;3.00;;
4986;SDS011;12674;51.500;7.552;2023-02-27T09:05:28;7.73;;;3.37;;
4986;SDS011;12674;51.500;7.552;2023-02-27T09:07:35;7.57;;;4.13;;
4986;SDS011;12674;51.500;7.552;2023-02-27T09:09:38;10.10;;;2.80;;
4986;SDS011;12674;51.500;7.552;2023-02-27T09:11:41;6.43;;;3.27;;
4986;SDS011;12674;51.500;7.552;2023-02-27T09:13:47;4.93;;;2.83;;
4986;SDS011;12674;51.500;7.552;2023-02-27T09:15:51;7.90;;;2.83;;
4986;SDS011;12674;51.500;7.552;2023-02-27T09:17:54;8.20;;;3.03;;
4986;SDS011;12674;51.500;7.552;2023-02-27T09:20:03;6.03;;;2.60;;
4986;SDS011;12674;51.500;7.552;2023-02-27T09:22:09;4.93;;;2.77;;
4986;SDS011;12674;51.500;7.552;2023-02-27T09:24:12;5.43;;;2.97;;
4986;SDS011;12674;51.500;7.552;2023-02-27T09:26:21;9.77;;;3.30;;
4986;SDS011;12674;51.500;7.552;2023-02-27T09:28:42;8.60;;;3.17;;
4986;SDS011;12674;51.500;7.552;2023-02-27T09:30:47;10.03;;;2.80;;
4986;SDS011;12674;51.500;7.552;2023-02-27T09:32:50;5.60;;;2.30;;
4986;SDS011;12674;51.500;7.552;2023-02-27T09:34:53;8.77;;;3.20;;
4986;SDS011;12674;51.500;7.552;2023-02-27T09:36:57;6.53;;;2.70;;
4986;SDS011;12674;51.500;7.552;2023-02-27T09:39:00;14.50;;;2.80;;
4986;SDS011;12674;51.500;7.552;2023-02-27T09:41:03;13.67;;;3.40;;
4986;SDS011;12674;51.500;7.552;2023-02-27T09:43:08;5.87;;;2.70;;
4986;SDS011;12674;51.500;7.552;2023-02-27T09:45:15;3.57;;;2.87;;
4986;SDS011;12674;51.500;7.552;2023-02-27T09:47:26;7.20;;;2.40;;
4986;SDS011;12674;51.500;7.552;2023-02-27T09:49:33;6.27;;;2.53;;
4986;SDS011;12674;51.500;7.552;2023-02-27T09:51:43;6.03;;;2.70;;
4986;SDS011;12674;51.500;7.552;2023-02-27T09:53:46;4.00;;;2.30;;
4986;SDS011;12674;51.500;7.552;2023-02-27T09:55:51;10.40;;;3.20;;
4986;SDS011;12674;51.500;7.552;2023-02-27T09:57:56;7.57;;;2.50;;
4986;SDS011;12674;51.500;7.552;2023-02-27T10:00:04;10.90;;;3.17;;
4986;SDS011;12674;51.500;7.552;2023-02-27T10:02:20;7.93;;;3.20;;
4986;SDS011;12674;51.500;7.552;2023-02-27T10:04:30;4.00;;;2.80;;
4986;SDS011;12674;51.500;7.552;2023-02-27T10:06:37;11.37;;;3.47;;
4986;SDS011;12674;51.500;7.552;2023-02-27T10:08:45;6.00;;;2.90;;
4986;SDS011;12674;51.500;7.552;2023-02-27T10:10:53;7.17;;;2.47;;
4986;SDS011;12674;51.500;7.552;2023-02-27T10:13:05;11.10;;;2.77;;
4986;SDS011;12674;51.500;7.552;2023-02-27T10:15:23;7.50;;;2.60;;
4986;SDS011;12674;51.500;7.552;2023-02-27T10:17:29;10.00;;;2.67;;
4986;SDS011;12674;51.500;7.552;2023-02-27T10:19:35;5.23;;;2.60;;
4986;SDS011;12674;51.500;7.552;2023-02-27T10:21:39;10.30;;;3.17;;
4986;SDS011;12674;51.500;7.552;2023-02-27T10:23:47;7.50;;;2.90;;
4986;SDS011;12674;51.500;7.552;2023-02-27T10:25:53;3.87;;;2.30;;
4986;SDS011;12674;51.500;7.552;2023-02-27T10:28:11;7.70;;;2.30;;
4986;SDS011;12674;51.500;7.552;2023-02-27T10:30:18;4.50;;;2.40;;
4986;SDS011;12674;51.500;7.552;2023-02-27T10:32:32;3.53;;;1.97;;
4986;SDS011;12674;51.500;7.552;2023-02-27T10:34:37;6.33;;;2.07;;
4986;SDS011;12674;51.500;7.552;2023-02-27T10:36:41;3.03;;;1.70;;
4986;SDS011;12674;51.500;7.552;2023-02-27T10:38:45;3.90;;;1.93;;
4986;SDS011;12674;51.500;7.552;2023-02-27T10:40:51;6.53;;;2.37;;
4986;SDS011;12674;51.500;7.552;2023-02-27T10:42:55;5.20;;;2.03;;
4986;SDS011;12674;51.500;7.552;2023-02-27T10:45:01;4.53;;;1.43;;
4986;SDS011;12674;51.500;7.552;2023-02-27T10:47:04;8.73;;;1.70;;
4986;SDS011;12674;51.500;7.552;2023-02-27T10:49:12;4.27;;;1.93;;
4986;SDS011;12674;51.500;7.552;2023-02-27T10:51:20;9.53;;;2.33;;
4986;SDS011;12674;51.500;7.552;2023-02-27T10:53:26;4.03;;;2.00;;
4986;SDS011;12674;51.500;7.552;2023-02-27T10:55:30;3.50;;;1.40;;
4986;SDS011;12674;51.500;7.552;2023-02-27T10:57:35;5.70;;;1.80;;
4986;SDS011;12674;51.500;7.552;2023-02-27T10:59:43;4.47;;;1.70;;
4986;SDS011;12674;51.500;7.552;2023-02-27T11:01:53;3.37;;;1.33;;
4986;SDS011;12674;51.500;7.552;2023-02-27T11:03:56;4.63;;;1.43;;
4986;SDS011;12674;51.500;7.552;2023-02-27T11:06:03;5.20;;;1.90;;
4986;SDS011;12674;51.500;7.552;2023-02-27T11:08:10;3.87;;;1.70;;
4986;SDS011;12674;51.500;7.552;2023-02-27T11:10:16;3.57;;;1.73;;
4986;SDS011;12674;51.500;7.552;2023-02-27T11:12:26;8.20;;;2.27;;
4986;SDS011;12674;51.500;7.552;2023-02-27T11:14:32;3.53;;;2.13;;
4986;SDS011;12674;51.500;7.552;2023-02-27T11:16:44;5.40;;;1.70;;
4986;SDS011;12674;51.500;7.552;2023-02-27T11:18:48;5.57;;;2.03;;
4986;SDS011;12674;51.500;7.552;2023-02-27T11:20:59;3.03;;;1.80;;
4986;SDS011;12674;51.500;7.552;2023-02-27T11:23:18;6.90;;;2.03;;
4986;SDS011;12674;51.500;7.552;2023-02-27T11:25:23;5.43;;;2.10;;
4986;SDS011;12674;51.500;7.552;2023-02-27T11:27:27;6.63;;;1.60;;
4986;SDS011;12674;51.500;7.552;2023-02-27T11:29:32;2.90;;;1.80;;
4986;SDS011;12674;51.500;7.552;2023-02-27T11:31:35;2.67;;;1.60;;
4986;SDS011;12674;51.500;7.552;2023-02-27T11:33:47;5.80;;;1.60;;
4986;SDS011;12674;51.500;7.552;2023-02-27T11:35:52;6.73;;;1.80;;
4986;SDS011;12674;51.500;7.552;2023-02-27T11:38:01;1.87;;;1.50;;
4986;SDS011;12674;51.500;7.552;2023-02-27T11:40:11;7.93;;;2.03;;
4986;SDS011;12674;51.500;7.552;2023-02-27T11:42:17;4.57;;;2.10;;
4986;SDS011;12674;51.500;7.552;2023-02-27T11:44:26;7.33;;;2.17;;
4986;SDS011;12674;51.500;7.552;2023-02-27T11:46:51;2.20;;;1.37;;
4986;SDS011;12674;51.500;7.552;2023-02-27T11:48:56;5.30;;;1.83;;
4986;SDS011;12674;51.500;7.552;2023-02-27T11:51:04;7.10;;;2.20;;
4986;SDS011;12674;51.500;7.552;2023-02-27T11:53:42;5.80;;;1.33;;
4986;SDS011;12674;51.500;7.552;2023-02-27T11:55:50;2.93;;;1.80;;
4986;SDS011;12674;51.500;7.552;2023-02-27T11:57:57;4.60;;;1.70;;
4986;SDS011;12674;51.500;7.552;2023-02-27T12:00:03;2.30;;;1.73;;
4986;SDS011;12674;51.500;7.552;2023-02-27T12:02:16;3.53;;;1.80;;
4986;SDS011;12674;51.500;7.552;2023-02-27T12:04:25;8.80;;;2.00;;
4986;SDS011;12674;51.500;7.552;2023-02-27T12:06:30;4.63;;;1.97;;
4986;SDS011;12674;51.500;7.552;2023-02-27T12:08:38;4.07;;;2.00;;
4986;SDS011;12674;51.500;7.552;2023-02-27T12:14:21;5.67;;;2.13;;
4986;SDS011;12674;51.500;7.552;2023-02-27T12:16:28;3.73;;;1.40;;
4986;SDS011;12674;51.500;7.552;2023-02-27T12:18:37;5.07;;;1.50;;
4986;SDS011;12674;51.500;7.552;2023-02-27T12:20:46;2.77;;;1.30;;
4986;SDS011;12674;51.500;7.552;2023-02-27T12:22:52;5.77;;;1.70;;
4986;SDS011;12674;51.500;7.552;2023-02-27T12:24:59;5.33;;;1.73;;
4986;SDS011;12674;51.500;7.552;2023-02-27T12:27:09;8.60;;;2.93;;
4986;SDS011;12674;51.500;7.552;2023-02-27T12:29:18;5.07;;;1.60;;
4986;SDS011;12674;51.500;7.552;2023-02-27T12:31:30;4.83;;;1.77;;
4986;SDS011;12674;51.500;7.552;2023-02-27T12:33:40;2.73;;;1.30;;
4986;SDS011;12674;51.500;7.552;2023-02-27T12:35:49;4.23;;;1.40;;
4986;SDS011;12674;51.500;7.552;2023-02-27T12:37:56;3.03;;;1.43;;
4986;SDS011;12674;51.500;7.552;2023-02-27T12:40:01;6.93;;;2.20;;
4986;SDS011;12674;51.500;7.552;2023-02-27T12:42:23;4.70;;;1.97;;
4986;SDS011;12674;51.500;7.552;2023-02-27T12:44:35;2.80;;;1.70;;
4986;SDS011;12674;51.500;7.552;2023-02-27T12:46:45;3.60;;;1.30;;
4986;SDS011;12674;51.500;7.552;2023-02-27T12:48:52;9.00;;;1.50;;
4986;SDS011;12674;51.500;7.552;2023-02-27T12:51:06;5.80;;;1.40;;
4986;SDS011;12674;51.500;7.552;2023-02-27T12:53:28;2.70;;;1.60;;
4986;SDS011;12674;51.500;7.552;2023-02-27T12:55:40;3.70;;;1.90;;
4986;SDS011;12674;51.500;7.552;2023-02-27T12:58:00;5.20;;;1.63;;
4986;SDS011;12674;51.500;7.552;2023-02-27T13:00:12;2.80;;;1.30;;
4986;SDS011;12674;51.500;7.552;2023-02-27T13:02:29;5.37;;;1.53;;
4986;SDS011;12674;51.500;7.552;2023-02-27T13:04:41;5.03;;;1.30;;
4986;SDS011;12674;51.500;7.552;2023-02-27T13:06:47;4.33;;;1.70;;